sensor_id;sensor_type;location;lat;lon;timestamp;pressure;altitude;pressure_sealevel;temperature;humidity
41886;BME280;27567;43.084;25.616;2023-04-20T00:02:13;97747.31;;;9.30;100.00
41886;BME280;27567;43.084;25.616;2023-04-20T00:05:01;97744.84;;;9.35;100.00
41886;BME280;27567;43.084;25.616;2023-04-20T00:07:45;97732.28;;;9.29;100.00
41886;BME280;27567;43.084;25.616;2023-04-20T00:10:31;97727.56;;;9.31;100.00
41886;BME280;27567;43.084;25.616;2023-04-20T00:13:18;97730.44;;;9.23;100.00
41886;BME280;27567;43.084;25.616;2023-04-20T00:16:02;97725.28;;;9.28;100.00
41886;BME280;27567;43.084;25.616;2023-04-20T00:18:46;97739.91;;;9.25;100.00
41886;BME280;27567;43.084;25.616;2023-04-20T00:21:30;97739.50;;;9.15;100.00
41886;BME280;27567;43.084;25.616;2023-04-20T00:24:14;97731.28;;;9.10;100.00
41886;BME280;27567;43.084;25.616;2023-04-20T00:26:58;97730.47;;;9.02;100.00
41886;BME280;27567;43.084;25.616;2023-04-20T00:29:42;97729.00;;;9.00;100.00
41886;BME280;27567;43.084;25.616;2023-04-20T00:32:26;97727.59;;;9.04;100.00
41886;BME280;27567;43.084;25.616;2023-04-20T00:35:11;97723.25;;;9.03;100.00
41886;BME280;27567;43.084;25.616;2023-04-20T00:37:55;97726.34;;;9.07;100.00
41886;BME280;27567;43.084;25.616;2023-04-20T00:40:42;97722.44;;;9.09;100.00
41886;BME280;27567;43.084;25.616;2023-04-20T00:43:26;97723.06;;;9.11;100.00
41886;BME280;27567;43.084;25.616;2023-04-20T00:46:10;97719.34;;;9.19;100.00
41886;BME280;27567;43.084;25.616;2023-04-20T00:48:54;97714.19;;;9.17;100.00
41886;BME280;27567;43.084;25.616;2023-04-20T00:51:39;97717.06;;;9.23;100.00
41886;BME280;27567;43.084;25.616;2023-04-20T00:54:25;97732.09;;;9.24;100.00
41886;BME280;27567;43.084;25.616;2023-04-20T00:57:12;97735.56;;;9.17;100.00
41886;BME280;27567;43.084;25.616;2023-04-20T00:59:56;97722.84;;;9.13;100.00
41886;BME280;27567;43.084;25.616;2023-04-20T01:02:41;97733.53;;;9.13;100.00
41886;BME280;27567;43.084;25.616;2023-04-20T01:05:25;97726.34;;;9.07;100.00
41886;BME280;27567;43.084;25.616;2023-04-20T01:08:09;97736.41;;;9.05;100.00
41886;BME280;27567;43.084;25.616;2023-04-20T01:10:54;97731.28;;;9.03;100.00
41886;BME280;27567;43.084;25.616;2023-04-20T01:13:38;97739.31;;;9.03;100.00
41886;BME280;27567;43.084;25.616;2023-04-20T01:16:22;97738.28;;;9.04;100.00
41886;BME280;27567;43.084;25.616;2023-04-20T01:19:06;97736.22;;;8.99;100.00
41886;BME280;27567;43.084;25.616;2023-04-20T01:21:50;97732.53;;;9.00;100.00
41886;BME280;27567;43.084;25.616;2023-04-20T01:24:35;97734.38;;;9.00;100.00
41886;BME280;27567;43.084;25.616;2023-04-20T01:27:19;97736.22;;;8.99;100.00
41886;BME280;27567;43.084;25.616;2023-04-20T01:30:04;97742.38;;;9.00;100.00
41886;BME280;27567;43.084;25.616;2023-04-20T01:32:48;97739.53;;;9.01;100.00
41886;BME280;27567;43.084;25.616;2023-04-20T01:35:32;97737.88;;;9.00;100.00
41886;BME280;27567;43.084;25.616;2023-04-20T01:38:19;97738.91;;;8.99;100.00
41886;BME280;27567;43.084;25.616;2023-04-20T01:41:06;97750.00;;;9.03;100.00
41886;BME280;27567;43.084;25.616;2023-04-20T01:43:50;97741.16;;;9.02;100.00
41886;BME280;27567;43.084;25.616;2023-04-20T01:46:38;97744.25;;;9.06;100.00
41886;BME280;27567;43.084;25.616;2023-04-20T01:49:22;97743.22;;;9.07;100.00
41886;BME280;27567;43.084;25.616;2023-04-20T01:52:07;97735.59;;;9.04;100.00
41886;BME280;27567;43.084;25.616;2023-04-20T01:54:51;97738.50;;;9.02;100.00
41886;BME280;27567;43.084;25.616;2023-04-20T01:57:35;97739.09;;;9.05;100.00
41886;BME280;27567;43.084;25.616;2023-04-20T02:00:19;97723.66;;;9.00;100.00
41886;BME280;27567;43.084;25.616;2023-04-20T02:03:03;97732.31;;;9.09;100.00
41886;BME280;27567;43.084;25.616;2023-04-20T02:05:47;97728.59;;;9.10;100.00
41886;BME280;27567;43.084;25.616;2023-04-20T02:08:33;97732.09;;;9.10;100.00
41886;BME280;27567;43.084;25.616;2023-04-20T02:11:17;97729.63;;;9.09;100.00
41886;BME280;27567;43.084;25.616;2023-04-20T02:14:01;97724.91;;;9.11;100.00
41886;BME280;27567;43.084;25.616;2023-04-20T02:16:46;97728.00;;;9.14;100.00
41886;BME280;27567;43.084;25.616;2023-04-20T02:19:30;97738.47;;;9.09;100.00
41886;BME280;27567;43.084;25.616;2023-04-20T02:22:14;97737.44;;;9.03;100.00
41886;BME280;27567;43.084;25.616;2023-04-20T02:24:58;97737.25;;;8.98;100.00
41886;BME280;27567;43.084;25.616;2023-04-20T02:27:42;97733.72;;;9.05;100.00
41886;BME280;27567;43.084;25.616;2023-04-20T02:30:26;97737.03;;;8.93;100.00
41886;BME280;27567;43.084;25.616;2023-04-20T02:33:10;97742.41;;;8.86;100.00
41886;BME280;27567;43.084;25.616;2023-04-20T02:35:54;97727.16;;;8.80;100.00
41886;BME280;27567;43.084;25.616;2023-04-20T02:38:38;97727.34;;;8.79;100.00
41886;BME280;27567;43.084;25.616;2023-04-20T02:41:22;97738.88;;;8.79;100.00
41886;BME280;27567;43.084;25.616;2023-04-20T02:44:07;97729.00;;;8.73;100.00
41886;BME280;27567;43.084;25.616;2023-04-20T02:46:51;97727.38;;;8.72;100.00
41886;BME280;27567;43.084;25.616;2023-04-20T02:49:35;97719.75;;;8.62;100.00
41886;BME280;27567;43.084;25.616;2023-04-20T02:52:19;97727.16;;;8.53;100.00
41886;BME280;27567;43.084;25.616;2023-04-20T02:55:03;97725.66;;;8.44;100.00
41886;BME280;27567;43.084;25.616;2023-04-20T02:57:47;97727.28;;;8.38;100.00
41886;BME280;27567;43.084;25.616;2023-04-20T03:00:31;97735.09;;;8.33;100.00
41886;BME280;27567;43.084;25.616;2023-04-20T03:03:16;97734.03;;;8.27;100.00
41886;BME280;27567;43.084;25.616;2023-04-20T03:06:00;97719.03;;;8.13;100.00
41886;BME280;27567;43.084;25.616;2023-04-20T03:08:45;97734.41;;;8.11;100.00
41886;BME280;27567;43.084;25.616;2023-04-20T03:11:29;97724.94;;;8.02;100.00
41886;BME280;27567;43.084;25.616;2023-04-20T03:14:14;97737.25;;;8.03;100.00
41886;BME280;27567;43.084;25.616;2023-04-20T03:16:58;97739.50;;;7.99;100.00
41886;BME280;27567;43.084;25.616;2023-04-20T03:19:43;97732.91;;;7.88;100.00
41886;BME280;27567;43.084;25.616;2023-04-20T03:22:27;97735.34;;;7.83;100.00
41886;BME280;27567;43.084;25.616;2023-04-20T03:25:11;97744.84;;;7.92;100.00
41886;BME280;27567;43.084;25.616;2023-04-20T03:27:55;97736.34;;;7.82;100.00
41886;BME280;27567;43.084;25.616;2023-04-20T03:30:39;97739.66;;;7.84;100.00
41886;BME280;27567;43.084;25.616;2023-04-20T03:33:23;97739.25;;;7.80;100.00
41886;BME280;27567;43.084;25.616;2023-04-20T03:36:07;97743.94;;;7.78;100.00
41886;BME280;27567;43.084;25.616;2023-04-20T03:38:52;97737.34;;;7.74;100.00
41886;BME280;27567;43.084;25.616;2023-04-20T03:41:36;97745.78;;;7.78;100.00
41886;BME280;27567;43.084;25.616;2023-04-20T03:44:20;97742.94;;;7.86;100.00
41886;BME280;27567;43.084;25.616;2023-04-20T03:47:04;97755.91;;;7.96;100.00
41886;BME280;27567;43.084;25.616;2023-04-20T03:49:49;97759.63;;;8.02;100.00
41886;BME280;27567;43.084;25.616;2023-04-20T03:52:33;97748.16;;;8.08;100.00
41886;BME280;27567;43.084;25.616;2023-04-20T03:55:18;97752.91;;;8.12;100.00
41886;BME280;27567;43.084;25.616;2023-04-20T03:58:04;97751.69;;;8.15;100.00
41886;BME280;27567;43.084;25.616;2023-04-20T04:00:49;97750.66;;;8.16;100.00
41886;BME280;27567;43.084;25.616;2023-04-20T04:03:34;97751.69;;;8.22;100.00
41886;BME280;27567;43.084;25.616;2023-04-20T04:06:18;97748.44;;;8.33;100.00
41886;BME280;27567;43.084;25.616;2023-04-20T04:09:02;97754.00;;;8.32;100.00
41886;BME280;27567;43.084;25.616;2023-04-20T04:11:46;97749.91;;;8.36;100.00
41886;BME280;27567;43.084;25.616;2023-04-20T04:14:32;97750.69;;;8.36;100.00
41886;BME280;27567;43.084;25.616;2023-04-20T04:17:16;97757.06;;;8.35;100.00
41886;BME280;27567;43.084;25.616;2023-04-20T04:20:01;97752.56;;;8.29;100.00
41886;BME280;27567;43.084;25.616;2023-04-20T04:22:45;97756.66;;;8.38;100.00
41886;BME280;27567;43.084;25.616;2023-04-20T04:25:29;97759.97;;;8.34;100.00
41886;BME280;27567;43.084;25.616;2023-04-20T04:28:13;97751.31;;;8.38;100.00
41886;BME280;27567;43.084;25.616;2023-04-20T04:31:01;97767.00;;;8.48;100.00
41886;BME280;27567;43.084;25.616;2023-04-20T04:33:49;97765.31;;;8.47;100.00
41886;BME280;27567;43.084;25.616;2023-04-20T04:36:33;97769.09;;;8.60;100.00
41886;BME280;27567;43.084;25.616;2023-04-20T04:39:17;97770.56;;;8.76;100.00
41886;BME280;27567;43.084;25.616;2023-04-20T04:42:01;97778.56;;;8.89;100.00
41886;BME280;27567;43.084;25.616;2023-04-20T04:44:45;97769.94;;;9.07;100.00
41886;BME280;27567;43.084;25.616;2023-04-20T04:47:33;97773.84;;;9.18;100.00
41886;BME280;27567;43.084;25.616;2023-04-20T04:50:18;97778.56;;;9.29;100.00
41886;BME280;27567;43.084;25.616;2023-04-20T04:53:02;97772.56;;;9.61;100.00
41886;BME280;27567;43.084;25.616;2023-04-20T04:55:46;97776.47;;;9.72;100.00
41886;BME280;27567;43.084;25.616;2023-04-20T04:58:30;97777.47;;;9.64;100.00
41886;BME280;27567;43.084;25.616;2023-04-20T05:01:14;97765.53;;;9.73;100.00
41886;BME280;27567;43.084;25.616;2023-04-20T05:03:57;97774.63;;;9.66;100.00
41886;BME280;27567;43.084;25.616;2023-04-20T05:06:41;97773.75;;;9.78;100.00
41886;BME280;27567;43.084;25.616;2023-04-20T05:09:25;97774.44;;;10.13;100.00
41886;BME280;27567;43.084;25.616;2023-04-20T05:12:16;97780.84;;;10.18;100.00
41886;BME280;27567;43.084;25.616;2023-04-20T05:15:01;97785.09;;;10.40;100.00
41886;BME280;27567;43.084;25.616;2023-04-20T05:17:45;97780.34;;;10.35;100.00
41886;BME280;27567;43.084;25.616;2023-04-20T05:20:32;97786.72;;;10.34;100.00
41886;BME280;27567;43.084;25.616;2023-04-20T05:23:16;97790.00;;;10.43;100.00
41886;BME280;27567;43.084;25.616;2023-04-20T05:26:00;97797.09;;;10.69;100.00
41886;BME280;27567;43.084;25.616;2023-04-20T05:28:44;97798.47;;;11.10;100.00
41886;BME280;27567;43.084;25.616;2023-04-20T05:31:28;97793.53;;;11.33;100.00
41886;BME280;27567;43.084;25.616;2023-04-20T05:34:13;97793.81;;;11.68;100.00
41886;BME280;27567;43.084;25.616;2023-04-20T05:36:57;97798.19;;;11.88;100.00
41886;BME280;27567;43.084;25.616;2023-04-20T05:39:41;97786.09;;;12.16;100.00
41886;BME280;27567;43.084;25.616;2023-04-20T05:42:25;97799.81;;;12.26;100.00
41886;BME280;27567;43.084;25.616;2023-04-20T05:45:10;97788.50;;;12.06;100.00
41886;BME280;27567;43.084;25.616;2023-04-20T05:47:55;97801.13;;;11.61;100.00
41886;BME280;27567;43.084;25.616;2023-04-20T05:50:39;97803.59;;;11.63;100.00
41886;BME280;27567;43.084;25.616;2023-04-20T05:53:23;97813.13;;;11.58;100.00
41886;BME280;27567;43.084;25.616;2023-04-20T05:56:07;97803.66;;;11.56;100.00
41886;BME280;27567;43.084;25.616;2023-04-20T05:58:52;97811.00;;;11.67;100.00
41886;BME280;27567;43.084;25.616;2023-04-20T06:01:37;97798.63;;;11.85;100.00
41886;BME280;27567;43.084;25.616;2023-04-20T06:04:21;97796.91;;;11.91;100.00
41886;BME280;27567;43.084;25.616;2023-04-20T06:07:05;97805.47;;;11.62;100.00
41886;BME280;27567;43.084;25.616;2023-04-20T06:09:49;97806.88;;;11.65;100.00
41886;BME280;27567;43.084;25.616;2023-04-20T06:12:33;97812.47;;;11.63;100.00
41886;BME280;27567;43.084;25.616;2023-04-20T06:15:18;97814.22;;;11.51;100.00
41886;BME280;27567;43.084;25.616;2023-04-20T06:18:02;97816.88;;;11.32;100.00
41886;BME280;27567;43.084;25.616;2023-04-20T06:20:46;97818.88;;;11.37;100.00
41886;BME280;27567;43.084;25.616;2023-04-20T06:23:30;97818.13;;;11.73;100.00
41886;BME280;27567;43.084;25.616;2023-04-20T06:26:14;97807.13;;;12.19;100.00
41886;BME280;27567;43.084;25.616;2023-04-20T06:28:58;97806.44;;;12.42;100.00
41886;BME280;27567;43.084;25.616;2023-04-20T06:31:42;97804.22;;;13.12;100.00
41886;BME280;27567;43.084;25.616;2023-04-20T06:34:26;97815.19;;;13.53;100.00
41886;BME280;27567;43.084;25.616;2023-04-20T06:37:10;97814.63;;;14.27;100.00
41886;BME280;27567;43.084;25.616;2023-04-20T06:39:54;97804.72;;;14.45;100.00
41886;BME280;27567;43.084;25.616;2023-04-20T06:42:39;97810.22;;;14.91;100.00
41886;BME280;27567;43.084;25.616;2023-04-20T06:45:22;97809.09;;;13.70;100.00
41886;BME280;27567;43.084;25.616;2023-04-20T06:48:06;97810.50;;;13.60;100.00
41886;BME280;27567;43.084;25.616;2023-04-20T06:50:50;97819.78;;;13.10;100.00
41886;BME280;27567;43.084;25.616;2023-04-20T06:53:34;97822.19;;;12.57;100.00
41886;BME280;27567;43.084;25.616;2023-04-20T06:56:18;97827.16;;;12.72;100.00
41886;BME280;27567;43.084;25.616;2023-04-20T06:59:03;97824.38;;;12.48;100.00
41886;BME280;27567;43.084;25.616;2023-04-20T07:01:47;97825.38;;;12.66;100.00
41886;BME280;27567;43.084;25.616;2023-04-20T07:04:30;97820.13;;;13.02;100.00
41886;BME280;27567;43.084;25.616;2023-04-20T07:07:14;97829.50;;;12.50;100.00
41886;BME280;27567;43.084;25.616;2023-04-20T07:09:59;97825.94;;;12.56;100.00
41886;BME280;27567;43.084;25.616;2023-04-20T07:12:43;97827.16;;;12.23;100.00
41886;BME280;27567;43.084;25.616;2023-04-20T07:15:27;97823.59;;;12.11;100.00
41886;BME280;27567;43.084;25.616;2023-04-20T07:18:11;97835.81;;;12.07;100.00
41886;BME280;27567;43.084;25.616;2023-04-20T07:20:56;97837.47;;;12.08;100.00
41886;BME280;27567;43.084;25.616;2023-04-20T07:23:40;97831.00;;;12.46;100.00
41886;BME280;27567;43.084;25.616;2023-04-20T07:26:24;97835.13;;;12.48;100.00
41886;BME280;27567;43.084;25.616;2023-04-20T07:29:08;97840.75;;;12.28;100.00
41886;BME280;27567;43.084;25.616;2023-04-20T07:31:52;97835.47;;;12.52;100.00
41886;BME280;27567;43.084;25.616;2023-04-20T07:34:36;97835.38;;;12.59;100.00
41886;BME280;27567;43.084;25.616;2023-04-20T07:37:20;97835.13;;;12.48;100.00
41886;BME280;27567;43.084;25.616;2023-04-20T07:40:05;97835.84;;;12.56;100.00
41886;BME280;27567;43.084;25.616;2023-04-20T07:42:49;97827.06;;;12.79;100.00
41886;BME280;27567;43.084;25.616;2023-04-20T07:45:33;97832.50;;;13.57;100.00
41886;BME280;27567;43.084;25.616;2023-04-20T07:48:17;97823.72;;;13.86;100.00
41886;BME280;27567;43.084;25.616;2023-04-20T07:51:01;97821.00;;;14.09;100.00
41886;BME280;27567;43.084;25.616;2023-04-20T07:53:45;97820.31;;;14.02;100.00
41886;BME280;27567;43.084;25.616;2023-04-20T07:56:29;97821.09;;;14.15;100.00
41886;BME280;27567;43.084;25.616;2023-04-20T07:59:13;97813.75;;;13.98;100.00
41886;BME280;27567;43.084;25.616;2023-04-20T08:02:01;97815.09;;;13.60;100.00
41886;BME280;27567;43.084;25.616;2023-04-20T08:04:46;97817.59;;;14.14;100.00
41886;BME280;27567;43.084;25.616;2023-04-20T08:07:31;97810.16;;;13.80;100.00
41886;BME280;27567;43.084;25.616;2023-04-20T08:10:16;97809.66;;;13.36;100.00
41886;BME280;27567;43.084;25.616;2023-04-20T08:13:00;97807.09;;;13.65;100.00
41886;BME280;27567;43.084;25.616;2023-04-20T08:15:44;97804.16;;;14.02;100.00
41886;BME280;27567;43.084;25.616;2023-04-20T08:18:31;97797.47;;;14.46;100.00
41886;BME280;27567;43.084;25.616;2023-04-20T08:21:15;97813.31;;;15.00;100.00
41886;BME280;27567;43.084;25.616;2023-04-20T08:23:59;97805.56;;;14.46;100.00
41886;BME280;27567;43.084;25.616;2023-04-20T08:26:43;97806.41;;;15.38;100.00
41886;BME280;27567;43.084;25.616;2023-04-20T08:29:27;97793.31;;;16.03;100.00
41886;BME280;27567;43.084;25.616;2023-04-20T08:32:10;97802.13;;;15.42;100.00
41886;BME280;27567;43.084;25.616;2023-04-20T08:34:55;97806.31;;;15.16;100.00
41886;BME280;27567;43.084;25.616;2023-04-20T08:37:39;97806.19;;;14.94;100.00
41886;BME280;27567;43.084;25.616;2023-04-20T08:40:25;97799.88;;;14.59;100.00
41886;BME280;27567;43.084;25.616;2023-04-20T08:43:11;97799.03;;;15.16;100.00
41886;BME280;27567;43.084;25.616;2023-04-20T08:45:59;97804.31;;;14.65;100.00
41886;BME280;27567;43.084;25.616;2023-04-20T08:48:46;97805.78;;;14.15;100.00
41886;BME280;27567;43.084;25.616;2023-04-20T08:51:32;97801.50;;;14.60;100.00
41886;BME280;27567;43.084;25.616;2023-04-20T08:54:16;97815.16;;;13.89;100.00
41886;BME280;27567;43.084;25.616;2023-04-20T08:57:00;97809.75;;;14.01;100.00
41886;BME280;27567;43.084;25.616;2023-04-20T08:59:44;97795.72;;;14.39;100.00
41886;BME280;27567;43.084;25.616;2023-04-20T09:02:29;97798.75;;;14.55;100.00
41886;BME280;27567;43.084;25.616;2023-04-20T09:05:13;97800.28;;;14.51;100.00
41886;BME280;27567;43.084;25.616;2023-04-20T09:07:58;97800.66;;;15.17;100.00
41886;BME280;27567;43.084;25.616;2023-04-20T09:10:43;97794.34;;;14.95;100.00
41886;BME280;27567;43.084;25.616;2023-04-20T09:13:27;97800.31;;;14.97;100.00
41886;BME280;27567;43.084;25.616;2023-04-20T09:16:12;97794.50;;;15.56;100.00
41886;BME280;27567;43.084;25.616;2023-04-20T09:18:57;97801.44;;;15.69;100.00
41886;BME280;27567;43.084;25.616;2023-04-20T09:21:48;97797.34;;;14.81;100.00
41886;BME280;27567;43.084;25.616;2023-04-20T09:24:34;97809.78;;;14.41;100.00
41886;BME280;27567;43.084;25.616;2023-04-20T09:27:19;97805.34;;;14.35;100.00
41886;BME280;27567;43.084;25.616;2023-04-20T09:30:06;97796.03;;;14.55;100.00
41886;BME280;27567;43.084;25.616;2023-04-20T09:33:01;97799.22;;;14.81;100.00
41886;BME280;27567;43.084;25.616;2023-04-20T09:35:45;97791.53;;;14.72;100.00
41886;BME280;27567;43.084;25.616;2023-04-20T09:38:29;97794.72;;;14.57;100.00
41886;BME280;27567;43.084;25.616;2023-04-20T09:41:15;97798.09;;;14.77;100.00
41886;BME280;27567;43.084;25.616;2023-04-20T09:44:01;97799.72;;;14.78;100.00
41886;BME280;27567;43.084;25.616;2023-04-20T09:46:45;97792.84;;;14.87;100.00
41886;BME280;27567;43.084;25.616;2023-04-20T09:49:30;97802.66;;;14.64;100.00
41886;BME280;27567;43.084;25.616;2023-04-20T09:52:16;97794.63;;;14.52;100.00
41886;BME280;27567;43.084;25.616;2023-04-20T09:55:06;97797.13;;;15.00;100.00
41886;BME280;27567;43.084;25.616;2023-04-20T09:57:52;97785.13;;;15.98;100.00
41886;BME280;27567;43.084;25.616;2023-04-20T10:00:36;97791.38;;;15.99;100.00
41886;BME280;27567;43.084;25.616;2023-04-20T10:03:20;97790.50;;;15.76;100.00
41886;BME280;27567;43.084;25.616;2023-04-20T10:06:04;97786.47;;;15.78;100.00
41886;BME280;27567;43.084;25.616;2023-04-20T10:08:50;97783.84;;;15.84;100.00
41886;BME280;27567;43.084;25.616;2023-04-20T10:11:36;97781.81;;;16.13;100.00
41886;BME280;27567;43.084;25.616;2023-04-20T10:14:22;97789.84;;;15.52;100.00
41886;BME280;27567;43.084;25.616;2023-04-20T10:17:08;97777.69;;;15.49;100.00
41886;BME280;27567;43.084;25.616;2023-04-20T10:19:52;97778.44;;;15.84;100.00
41886;BME280;27567;43.084;25.616;2023-04-20T10:22:37;97772.69;;;15.24;100.00
41886;BME280;27567;43.084;25.616;2023-04-20T10:25:23;97769.94;;;15.75;100.00
41886;BME280;27567;43.084;25.616;2023-04-20T10:28:09;97771.41;;;15.66;100.00
41886;BME280;27567;43.084;25.616;2023-04-20T10:30:54;97775.50;;;15.68;100.00
41886;BME280;27567;43.084;25.616;2023-04-20T10:33:54;97778.19;;;15.68;100.00
41886;BME280;27567;43.084;25.616;2023-04-20T10:36:38;97772.38;;;15.76;100.00
41886;BME280;27567;43.084;25.616;2023-04-20T10:39:23;97781.44;;;15.48;100.00
41886;BME280;27567;43.084;25.616;2023-04-20T10:42:09;97774.38;;;14.96;100.00
41886;BME280;27567;43.084;25.616;2023-04-20T10:44:53;97772.84;;;15.17;100.00
41886;BME280;27567;43.084;25.616;2023-04-20T10:47:38;97772.50;;;15.30;100.00
41886;BME280;27567;43.084;25.616;2023-04-20T10:50:25;97772.44;;;15.99;100.00
41886;BME280;27567;43.084;25.616;2023-04-20T10:53:20;97774.50;;;16.36;100.00
41886;BME280;27567;43.084;25.616;2023-04-20T10:56:05;97771.13;;;16.01;100.00
41886;BME280;27567;43.084;25.616;2023-04-20T10:58:49;97773.63;;;15.69;100.00
41886;BME280;27567;43.084;25.616;2023-04-20T11:01:33;97778.56;;;15.55;100.00
41886;BME280;27567;43.084;25.616;2023-04-20T11:04:17;97773.50;;;15.98;100.00
41886;BME280;27567;43.084;25.616;2023-04-20T11:07:06;97771.22;;;15.89;100.00
41886;BME280;27567;43.084;25.616;2023-04-20T11:09:53;97759.81;;;16.04;100.00
41886;BME280;27567;43.084;25.616;2023-04-20T11:12:40;97762.41;;;16.44;100.00
41886;BME280;27567;43.084;25.616;2023-04-20T11:15:34;97761.38;;;16.77;100.00
41886;BME280;27567;43.084;25.616;2023-04-20T11:18:18;97756.50;;;20.06;100.00
41886;BME280;27567;43.084;25.616;2023-04-20T11:21:02;97750.59;;;19.63;100.00
41886;BME280;27567;43.084;25.616;2023-04-20T11:23:48;97756.91;;;17.58;100.00
41886;BME280;27567;43.084;25.616;2023-04-20T11:26:36;97753.53;;;17.84;100.00
41886;BME280;27567;43.084;25.616;2023-04-20T11:29:33;97751.09;;;19.86;100.00
41886;BME280;27567;43.084;25.616;2023-04-20T11:32:18;97756.59;;;19.39;100.00
41886;BME280;27567;43.084;25.616;2023-04-20T11:35:04;97740.22;;;18.36;100.00
41886;BME280;27567;43.084;25.616;2023-04-20T11:37:50;97748.97;;;18.63;100.00
41886;BME280;27567;43.084;25.616;2023-04-20T11:40:37;97746.19;;;18.48;100.00
41886;BME280;27567;43.084;25.616;2023-04-20T11:43:21;97739.16;;;18.52;100.00
41886;BME280;27567;43.084;25.616;2023-04-20T11:46:15;97730.84;;;18.95;100.00
41886;BME280;27567;43.084;25.616;2023-04-20T11:48:59;97726.72;;;20.31;100.00
41886;BME280;27567;43.084;25.616;2023-04-20T11:51:45;97727.00;;;20.79;100.00
41886;BME280;27567;43.084;25.616;2023-04-20T11:54:32;97721.19;;;19.86;100.00
41886;BME280;27567;43.084;25.616;2023-04-20T11:57:17;97724.44;;;18.27;100.00
41886;BME280;27567;43.084;25.616;2023-04-20T12:00:01;97724.34;;;17.10;100.00
41886;BME280;27567;43.084;25.616;2023-04-20T12:02:47;97726.22;;;16.22;100.00
41886;BME280;27567;43.084;25.616;2023-04-20T12:05:31;97725.09;;;15.79;100.00
41886;BME280;27567;43.084;25.616;2023-04-20T12:08:15;97739.66;;;15.56;100.00
41886;BME280;27567;43.084;25.616;2023-04-20T12:10:59;97728.75;;;15.28;100.00
41886;BME280;27567;43.084;25.616;2023-04-20T12:13:43;97726.16;;;14.99;100.00
41886;BME280;27567;43.084;25.616;2023-04-20T12:16:27;97723.75;;;15.03;100.00
41886;BME280;27567;43.084;25.616;2023-04-20T12:19:11;97725.22;;;15.11;100.00
41886;BME280;27567;43.084;25.616;2023-04-20T12:21:55;97719.66;;;15.74;100.00
41886;BME280;27567;43.084;25.616;2023-04-20T12:24:39;97712.06;;;16.43;100.00
41886;BME280;27567;43.084;25.616;2023-04-20T12:27:23;97698.81;;;17.97;100.00
41886;BME280;27567;43.084;25.616;2023-04-20T12:30:08;97707.13;;;17.75;100.00
41886;BME280;27567;43.084;25.616;2023-04-20T12:32:52;97712.66;;;17.05;100.00
41886;BME280;27567;43.084;25.616;2023-04-20T12:35:36;97715.91;;;17.02;100.00
41886;BME280;27567;43.084;25.616;2023-04-20T12:38:20;97711.22;;;16.37;100.00
41886;BME280;27567;43.084;25.616;2023-04-20T12:41:04;97718.69;;;14.90;100.00
41886;BME280;27567;43.084;25.616;2023-04-20T12:43:51;97708.88;;;13.56;100.00
41886;BME280;27567;43.084;25.616;2023-04-20T12:46:35;97712.41;;;12.54;100.00
41886;BME280;27567;43.084;25.616;2023-04-20T12:49:19;97706.25;;;12.35;100.00
41886;BME280;27567;43.084;25.616;2023-04-20T12:52:03;97707.50;;;12.21;100.00
41886;BME280;27567;43.084;25.616;2023-04-20T12:54:48;97699.47;;;12.32;100.00
41886;BME280;27567;43.084;25.616;2023-04-20T12:57:32;97703.28;;;12.55;100.00
41886;BME280;27567;43.084;25.616;2023-04-20T13:00:17;97702.88;;;14.18;100.00
41886;BME280;27567;43.084;25.616;2023-04-20T13:03:01;97708.13;;;15.61;100.00
41886;BME280;27567;43.084;25.616;2023-04-20T13:05:45;97703.09;;;14.46;100.00
41886;BME280;27567;43.084;25.616;2023-04-20T13:08:30;97699.03;;;13.26;100.00
41886;BME280;27567;43.084;25.616;2023-04-20T13:11:13;97695.13;;;12.74;100.00
41886;BME280;27567;43.084;25.616;2023-04-20T13:14:00;97708.03;;;12.41;100.00
41886;BME280;27567;43.084;25.616;2023-04-20T13:16:44;97686.06;;;12.02;100.00
41886;BME280;27567;43.084;25.616;2023-04-20T13:19:28;97687.91;;;11.83;100.00
41886;BME280;27567;43.084;25.616;2023-04-20T13:22:12;97684.41;;;12.01;100.00
41886;BME280;27567;43.084;25.616;2023-04-20T13:24:56;97669.69;;;11.85;100.00
41886;BME280;27567;43.084;25.616;2023-04-20T13:27:40;97673.88;;;11.81;100.00
41886;BME280;27567;43.084;25.616;2023-04-20T13:30:24;97670.97;;;11.82;100.00
41886;BME280;27567;43.084;25.616;2023-04-20T13:33:09;97665.88;;;12.11;100.00
41886;BME280;27567;43.084;25.616;2023-04-20T13:35:53;97670.88;;;12.08;100.00
41886;BME280;27567;43.084;25.616;2023-04-20T13:38:37;97670.53;;;12.46;100.00
41886;BME280;27567;43.084;25.616;2023-04-20T13:41:22;97653.13;;;13.56;100.00
41886;BME280;27567;43.084;25.616;2023-04-20T13:44:12;97671.41;;;14.24;100.00
41886;BME280;27567;43.084;25.616;2023-04-20T13:46:59;97659.00;;;13.41;100.00
41886;BME280;27567;43.084;25.616;2023-04-20T13:49:43;97680.91;;;12.97;100.00
41886;BME280;27567;43.084;25.616;2023-04-20T13:52:27;97673.16;;;12.65;100.00
41886;BME280;27567;43.084;25.616;2023-04-20T13:55:12;97672.38;;;12.34;100.00
41886;BME280;27567;43.084;25.616;2023-04-20T13:57:56;97670.69;;;12.21;100.00
41886;BME280;27567;43.084;25.616;2023-04-20T14:00:39;97672.97;;;12.06;100.00
41886;BME280;27567;43.084;25.616;2023-04-20T14:03:24;97670.56;;;11.97;100.00
41886;BME280;27567;43.084;25.616;2023-04-20T14:06:08;97673.13;;;11.73;100.00
41886;BME280;27567;43.084;25.616;2023-04-20T14:08:53;97684.19;;;11.84;100.00
41886;BME280;27567;43.084;25.616;2023-04-20T14:11:37;97674.94;;;11.80;100.00
41886;BME280;27567;43.084;25.616;2023-04-20T14:14:23;97670.41;;;11.92;100.00